createdAt,value
2022-08-22T00:00:16.580Z,15.27
2022-08-22T00:02:58.943Z,16.51
2022-08-22T00:03:01.581Z,19.77
2022-08-22T00:03:10.196Z,16.90
2022-08-22T00:03:17.494Z,15.18
2022-08-22T00:06:08.708Z,15.24
2022-08-22T00:08:35.316Z,15.19
2022-08-22T00:11:13.507Z,15.15
2022-08-22T00:14:01.324Z,15.14
2022-08-22T00:16:48.422Z,15.16
2022-08-22T00:19:35.469Z,15.21
2022-08-22T00:22:20.723Z,15.19
2022-08-22T00:25:24.698Z,15.22
2022-08-22T00:28:34.608Z,15.19
2022-08-22T00:31:33.155Z,15.03
2022-08-22T00:34:24.287Z,14.92
2022-08-22T00:37:05.208Z,14.88
2022-08-22T00:39:41.999Z,14.87
2022-08-22T00:42:29.477Z,14.67
2022-08-22T00:45:16.735Z,14.63
2022-08-22T00:47:52.457Z,14.58
2022-08-22T00:51:01.760Z,14.53
2022-08-22T00:53:46.323Z,14.41
2022-08-22T00:56:40.561Z,14.44
2022-08-22T00:59:23.106Z,14.41
2022-08-22T01:02:04.095Z,14.35
2022-08-22T01:04:48.944Z,14.60
2022-08-22T01:07:40.787Z,14.75
2022-08-22T01:10:42.720Z,14.91
2022-08-22T01:13:24.180Z,15.02
2022-08-22T01:15:59.874Z,15.13
2022-08-22T01:19:10.933Z,15.24
2022-08-22T01:21:55.481Z,15.38
2022-08-22T01:25:21.933Z,15.53
2022-08-22T01:28:29.993Z,15.58
2022-08-22T01:31:26.062Z,15.38
2022-08-22T01:34:27.018Z,15.37
2022-08-22T01:37:21.415Z,15.49
2022-08-22T01:39:57.249Z,15.56
2022-08-22T01:42:51.907Z,15.41
2022-08-22T01:45:30.798Z,15.43
2022-08-22T01:48:16.237Z,15.43
2022-08-22T01:50:49.412Z,15.36
2022-08-22T01:53:42.366Z,15.36
2022-08-22T01:56:16.707Z,15.31
2022-08-22T01:59:01.627Z,15.45
2022-08-22T02:01:28.593Z,15.51
2022-08-22T02:04:37.546Z,15.60
2022-08-22T02:07:31.926Z,15.50
2022-08-22T02:10:21.207Z,15.17
2022-08-22T02:13:09.831Z,15.10
2022-08-22T02:15:39.818Z,15.08
2022-08-22T02:18:06.380Z,15.10
2022-08-22T02:20:59.075Z,15.10
2022-08-22T02:23:50.034Z,15.05
2022-08-22T02:26:22.565Z,14.93
2022-08-22T02:28:58.911Z,14.96
2022-08-22T02:31:46.300Z,15.09
2022-08-22T02:34:24.229Z,15.02
2022-08-22T02:37:17.936Z,15.04
2022-08-22T02:39:54.089Z,14.96
2022-08-22T02:42:29.036Z,14.98
2022-08-22T02:45:11.618Z,14.96
2022-08-22T02:48:00.781Z,14.93
2022-08-22T02:50:46.173Z,14.89
2022-08-22T02:53:27.165Z,14.84
2022-08-22T02:55:56.796Z,14.87
2022-08-22T02:58:29.164Z,14.97
2022-08-22T03:00:58.925Z,15.01
2022-08-22T03:03:28.921Z,14.92
2022-08-22T03:06:33.354Z,14.84
2022-08-22T03:09:12.261Z,14.77
2022-08-22T03:11:42.883Z,14.69
2022-08-22T03:14:22.562Z,14.69
2022-08-22T03:16:55.377Z,14.71
2022-08-22T03:19:30.443Z,14.71
2022-08-22T03:22:02.741Z,14.51
2022-08-22T03:24:48.457Z,14.42
2022-08-22T03:27:33.582Z,14.37
2022-08-22T03:30:13.653Z,14.42
2022-08-22T03:32:55.564Z,14.43
2022-08-22T03:35:33.319Z,14.30
2022-08-22T03:38:15.623Z,14.24
2022-08-22T03:40:58.566Z,14.23
2022-08-22T03:43:46.914Z,14.31
2022-08-22T03:46:51.346Z,14.39
2022-08-22T03:49:59.516Z,14.47
2022-08-22T03:52:32.432Z,14.47
2022-08-22T03:55:02.172Z,14.52
2022-08-22T03:57:53.451Z,14.50
2022-08-22T04:00:47.440Z,14.24
2022-08-22T04:03:20.072Z,14.06
2022-08-22T04:05:56.743Z,14.02
2022-08-22T04:08:43.778Z,14.07
2022-08-22T04:11:39.444Z,14.11
2022-08-22T04:14:28.238Z,13.98
2022-08-22T04:17:30.794Z,14.04
2022-08-22T04:20:16.655Z,14.04
2022-08-22T04:23:16.062Z,13.93
2022-08-22T04:25:50.486Z,13.89
2022-08-22T04:28:31.533Z,14.06
2022-08-22T04:31:01.223Z,14.13
2022-08-22T04:33:38.011Z,14.17
2022-08-22T04:36:26.428Z,14.20
2022-08-22T04:39:13.157Z,14.16
2022-08-22T04:41:58.356Z,14.04
2022-08-22T04:44:53.717Z,14.14
2022-08-22T04:47:30.402Z,14.27
2022-08-22T04:50:06.309Z,14.37
2022-08-22T04:52:48.381Z,14.42
2022-08-22T04:55:24.592Z,14.40
2022-08-22T04:57:51.262Z,14.36
2022-08-22T05:00:18.204Z,14.37
2022-08-22T05:02:51.233Z,14.48
2022-08-22T05:05:23.781Z,14.50
2022-08-22T05:08:03.187Z,14.57
2022-08-22T05:10:42.212Z,14.52
2022-08-22T05:13:18.270Z,14.54
2022-08-22T05:15:48.947Z,14.75
2022-08-22T05:18:24.058Z,14.92
2022-08-22T05:21:01.835Z,14.89
2022-08-22T05:23:35.951Z,14.89
2022-08-22T05:26:06.089Z,15.08
2022-08-22T05:28:41.430Z,15.37
2022-08-22T05:31:18.480Z,15.47
2022-08-22T05:33:56.931Z,15.44
2022-08-22T05:36:35.719Z,15.57
2022-08-22T05:39:25.399Z,15.67
2022-08-22T05:41:56.881Z,15.75
2022-08-22T05:44:27.960Z,15.96
2022-08-22T05:47:02.458Z,16.15
2022-08-22T05:49:50.863Z,16.27
2022-08-22T05:52:50.944Z,16.25
2022-08-22T05:55:17.536Z,16.46
2022-08-22T05:57:50.535Z,16.61
2022-08-22T06:00:25.646Z,16.68
2022-08-22T06:03:09.493Z,16.71
2022-08-22T06:05:42.663Z,16.87
2022-08-22T06:08:37.687Z,17.09
2022-08-22T06:11:17.404Z,17.18
2022-08-22T06:13:57.403Z,17.27
2022-08-22T06:16:34.366Z,17.39
2022-08-22T06:19:04.155Z,17.49
2022-08-22T06:21:50.598Z,17.49
2022-08-22T06:24:27.390Z,17.96
2022-08-22T06:27:01.946Z,18.85
2022-08-22T06:29:37.045Z,19.13
2022-08-22T06:32:12.963Z,19.44
2022-08-22T06:34:43.087Z,20.34
2022-08-22T06:37:17.912Z,22.32
2022-08-22T06:39:49.294Z,23.10
2022-08-22T06:42:25.738Z,24.22
2022-08-22T06:45:10.708Z,25.00
2022-08-22T06:47:50.267Z,26.04
2022-08-22T06:50:32.438Z,25.47
2022-08-22T06:53:15.335Z,25.04
2022-08-22T06:55:47.493Z,24.92
2022-08-22T06:58:37.307Z,25.36
2022-08-22T07:01:12.154Z,23.96
2022-08-22T07:04:03.288Z,23.92
2022-08-22T07:06:32.241Z,23.68
2022-08-22T07:08:58.973Z,23.14
2022-08-22T07:11:32.573Z,22.29
2022-08-22T07:14:16.562Z,22.15
2022-08-22T07:17:09.520Z,22.12
2022-08-22T07:19:45.286Z,22.08
2022-08-22T07:22:21.884Z,22.14
2022-08-22T07:24:55.178Z,21.87
2022-08-22T07:27:48.781Z,21.67
2022-08-22T07:30:27.462Z,21.95
2022-08-22T07:32:57.912Z,22.14
2022-08-22T07:35:53.265Z,22.17
2022-08-22T07:38:42.942Z,22.25
2022-08-22T07:41:21.116Z,22.07
2022-08-22T07:43:57.224Z,21.93
2022-08-22T07:46:37.715Z,22.13
2022-08-22T07:49:15.357Z,21.95
2022-08-22T07:51:47.690Z,22.20
2022-08-22T07:54:20.172Z,22.54
2022-08-22T07:57:08.048Z,22.60
2022-08-22T07:59:46.564Z,22.60
2022-08-22T08:02:15.843Z,22.52
2022-08-22T08:04:43.291Z,22.65
2022-08-22T08:07:14.914Z,22.77
2022-08-22T08:09:47.001Z,23.01
2022-08-22T08:12:15.747Z,22.80
2022-08-22T08:14:45.463Z,23.04
2022-08-22T08:17:21.467Z,22.87
2022-08-22T08:19:51.024Z,23.00
2022-08-22T08:22:25.450Z,23.02
2022-08-22T08:24:55.995Z,23.41
2022-08-22T08:27:45.076Z,23.50
2022-08-22T08:30:21.251Z,23.72
2022-08-22T08:33:25.050Z,23.55
2022-08-22T08:36:06.185Z,23.26
2022-08-22T08:38:46.559Z,23.18
2022-08-22T08:41:28.395Z,22.85
2022-08-22T08:44:13.422Z,22.68
2022-08-22T08:46:57.472Z,22.72
2022-08-22T08:49:43.038Z,22.86
2022-08-22T08:52:34.581Z,23.25
2022-08-22T08:55:21.811Z,23.26
2022-08-22T08:58:20.223Z,23.07
2022-08-22T09:01:19.509Z,23.10
2022-08-22T09:04:15.301Z,22.59
2022-08-22T09:06:59.284Z,23.21
2022-08-22T09:09:52.415Z,24.03
2022-08-22T09:12:56.913Z,24.05
2022-08-22T09:16:05.209Z,24.32
2022-08-22T09:19:02.569Z,24.63
2022-08-22T09:21:51.980Z,24.86
2022-08-22T09:24:46.924Z,24.52
2022-08-22T09:27:18.423Z,25.17
2022-08-22T09:30:11.594Z,24.95
2022-08-22T09:32:59.283Z,24.77
2022-08-22T09:36:00.993Z,25.24
2022-08-22T09:38:49.748Z,25.16
2022-08-22T09:41:37.772Z,24.52
2022-08-22T09:44:04.466Z,24.36
2022-08-22T09:46:52.794Z,24.07
2022-08-22T09:49:33.454Z,23.88
2022-08-22T09:52:33.939Z,23.77
2022-08-22T09:55:24.248Z,23.82
2022-08-22T09:58:16.238Z,24.17
2022-08-22T10:00:47.420Z,24.44
2022-08-22T10:03:30.488Z,24.66
2022-08-22T10:06:14.238Z,24.27
2022-08-22T10:08:50.535Z,24.28
2022-08-22T10:11:32.694Z,24.51
2022-08-22T10:14:02.562Z,24.03
2022-08-22T10:17:27.935Z,23.56
2022-08-22T10:20:03.680Z,23.86
2022-08-22T10:22:51.417Z,23.52
2022-08-22T10:25:33.932Z,23.47
2022-08-22T10:28:28.442Z,23.27
2022-08-22T10:31:30.686Z,22.68
2022-08-22T10:34:09.587Z,22.85
2022-08-22T10:36:52.983Z,23.07
2022-08-22T10:39:33.208Z,23.11
2022-08-22T10:42:19.457Z,23.05
2022-08-22T10:45:36.292Z,22.95
2022-08-22T10:48:23.431Z,23.03
2022-08-22T10:51:01.868Z,22.96
2022-08-22T10:53:42.775Z,23.07
2022-08-22T10:56:35.150Z,23.00
2022-08-22T10:59:20.110Z,23.21
2022-08-22T11:02:05.591Z,23.06
2022-08-22T11:05:02.974Z,23.20
2022-08-22T11:07:48.768Z,23.38
2022-08-22T11:10:35.062Z,23.41
2022-08-22T11:13:11.799Z,23.26
2022-08-22T11:15:44.773Z,23.27
2022-08-22T11:18:41.944Z,23.37
2022-08-22T11:21:36.735Z,23.41
2022-08-22T11:24:55.764Z,23.60
2022-08-22T11:27:45.293Z,24.83
2022-08-22T11:30:20.743Z,24.87
2022-08-22T11:33:06.225Z,24.26
2022-08-22T11:35:54.782Z,24.34
2022-08-22T11:38:36.203Z,24.92
2022-08-22T11:41:16.912Z,25.01
2022-08-22T11:43:52.842Z,25.12
2022-08-22T11:46:29.011Z,24.74
2022-08-22T11:49:14.423Z,24.14
2022-08-22T11:51:53.161Z,23.90
2022-08-22T11:54:46.490Z,23.67
2022-08-22T11:57:38.149Z,23.56
2022-08-22T12:00:23.503Z,23.77
2022-08-22T12:03:18.136Z,23.72
2022-08-22T12:06:07.763Z,23.81
2022-08-22T12:08:35.383Z,23.98
2022-08-22T12:11:35.972Z,23.48
2022-08-22T12:14:08.110Z,23.21
2022-08-22T12:17:06.418Z,22.99
2022-08-22T12:20:12.760Z,22.88
2022-08-22T12:22:56.894Z,22.83
2022-08-22T12:25:33.037Z,22.91
2022-08-22T12:28:02.512Z,22.86
2022-08-22T12:31:12.236Z,22.89
2022-08-22T12:33:57.285Z,22.78
2022-08-22T12:36:42.855Z,22.63
2022-08-22T12:39:34.545Z,22.73
2022-08-22T12:42:30.410Z,22.85
2022-08-22T12:45:15.596Z,22.93
2022-08-22T12:48:00.790Z,22.87
2022-08-22T12:50:43.817Z,22.96
2022-08-22T12:53:42.495Z,23.08
2022-08-22T12:57:01.793Z,23.21
2022-08-22T12:59:33.795Z,23.03
2022-08-22T13:02:25.245Z,23.12
2022-08-22T13:04:59.959Z,23.07
2022-08-22T13:07:34.519Z,23.04
2022-08-22T13:10:26.231Z,22.86
2022-08-22T13:12:55.975Z,22.86
2022-08-22T13:15:31.171Z,22.89
2022-08-22T13:18:18.974Z,23.10
2022-08-22T13:20:53.256Z,23.28
2022-08-22T13:23:31.468Z,23.57
2022-08-22T13:26:24.548Z,23.42
2022-08-22T13:29:27.122Z,23.33
2022-08-22T13:32:01.500Z,23.32
2022-08-22T13:34:57.181Z,23.25
2022-08-22T13:37:52.362Z,23.25
2022-08-22T13:40:37.009Z,23.13
2022-08-22T13:43:11.727Z,23.07
2022-08-22T13:45:42.870Z,23.06
2022-08-22T13:48:14.986Z,23.20
2022-08-22T13:51:12.151Z,23.31
2022-08-22T13:53:50.019Z,23.19
2022-08-22T13:56:47.929Z,23.16
2022-08-22T13:59:49.462Z,23.37
2022-08-22T14:02:43.743Z,23.26
2022-08-22T14:05:24.486Z,23.86
2022-08-22T14:08:21.067Z,23.75
2022-08-22T14:10:57.784Z,24.20
2022-08-22T14:13:53.175Z,24.16
2022-08-22T14:16:24.808Z,24.10
2022-08-22T14:19:00.621Z,24.37
2022-08-22T14:21:40.742Z,24.31
2022-08-22T14:24:25.889Z,24.28
2022-08-22T14:27:05.613Z,24.45
2022-08-22T14:29:40.477Z,24.44
2022-08-22T14:32:30.931Z,24.69
2022-08-22T14:35:23.451Z,24.70
2022-08-22T14:38:35.190Z,24.78
2022-08-22T14:41:09.877Z,24.65
2022-08-22T14:43:55.083Z,24.48
2022-08-22T14:46:34.013Z,24.76
2022-08-22T14:49:16.383Z,24.59
2022-08-22T14:51:58.070Z,24.60
2022-08-22T14:54:29.066Z,24.50
2022-08-22T14:56:57.267Z,24.72
2022-08-22T14:59:27.005Z,24.71
2022-08-22T15:02:00.070Z,24.35
2022-08-22T15:04:35.335Z,24.53
2022-08-22T15:07:02.421Z,24.32
2022-08-22T15:09:29.165Z,24.15
2022-08-22T15:11:58.866Z,24.22
2022-08-22T15:14:37.601Z,24.26
2022-08-22T15:17:08.802Z,24.10
2022-08-22T15:19:47.167Z,24.25
2022-08-22T15:22:28.032Z,24.07
2022-08-22T15:25:04.720Z,24.17
2022-08-22T15:27:34.932Z,24.33
2022-08-22T15:30:20.462Z,24.33
2022-08-22T15:32:49.112Z,24.33
2022-08-22T15:35:29.923Z,24.46
2022-08-22T15:38:08.149Z,24.39
2022-08-22T15:40:45.637Z,23.86
2022-08-22T15:43:26.718Z,23.90
2022-08-22T15:46:25.936Z,23.97
2022-08-22T15:49:01.532Z,24.02
2022-08-22T15:51:37.621Z,24.20
2022-08-22T15:54:24.399Z,24.10
2022-08-22T15:57:10.173Z,24.04
2022-08-22T15:59:48.154Z,23.98
2022-08-22T16:02:35.442Z,23.92
2022-08-22T16:05:11.487Z,24.04
2022-08-22T16:07:42.745Z,24.00
2022-08-22T16:10:24.818Z,23.70
2022-08-22T16:13:31.210Z,23.67
2022-08-22T16:16:09.763Z,23.56
2022-08-22T16:18:39.786Z,23.39
2022-08-22T16:21:10.659Z,23.42
2022-08-22T16:23:46.470Z,23.60
2022-08-22T16:26:40.381Z,23.48
2022-08-22T16:29:13.483Z,23.56
2022-08-22T16:31:44.049Z,23.46
2022-08-22T16:34:16.835Z,23.64
2022-08-22T16:37:08.597Z,23.57
2022-08-22T16:39:37.524Z,23.73
2022-08-22T16:44:47.965Z,23.56
2022-08-22T16:50:24.049Z,23.08
2022-08-22T16:53:05.514Z,23.02
2022-08-22T17:01:47.909Z,22.64
2022-08-22T17:04:21.823Z,22.49
2022-08-22T17:07:19.592Z,22.51
2022-08-22T17:10:07.907Z,22.43
2022-08-22T17:13:03.796Z,22.29
2022-08-22T17:15:54.731Z,22.21
2022-08-22T17:18:50.271Z,22.15
2022-08-22T17:21:26.145Z,22.13
2022-08-22T17:24:33.622Z,22.19
2022-08-22T17:27:27.090Z,22.16
2022-08-22T17:30:07.257Z,22.23
2022-08-22T17:33:08.857Z,22.21
2022-08-22T17:35:51.453Z,22.13
2022-08-22T17:38:42.810Z,22.05
2022-08-22T17:41:32.873Z,22.12
2022-08-22T17:44:13.899Z,22.13
2022-08-22T17:47:08.590Z,22.13
2022-08-22T17:49:41.336Z,22.01
2022-08-22T17:52:48.402Z,22.02
2022-08-22T17:58:37.463Z,21.83
2022-08-22T18:01:15.869Z,21.89
2022-08-22T18:04:01.105Z,21.83
2022-08-22T18:06:34.422Z,21.79
2022-08-22T18:09:18.765Z,21.76
2022-08-22T18:12:20.391Z,21.66
2022-08-22T18:14:59.983Z,21.48
2022-08-22T18:17:47.248Z,21.57
2022-08-22T18:20:33.246Z,21.58
2022-08-22T18:23:39.192Z,21.41
2022-08-22T18:26:16.669Z,21.35
2022-08-22T18:29:12.114Z,21.26
2022-08-22T18:31:59.965Z,21.19
2022-08-22T18:34:45.208Z,21.22
2022-08-22T18:37:43.992Z,21.35
2022-08-22T18:40:33.461Z,21.25
2022-08-22T18:43:37.902Z,21.15
2022-08-22T18:46:30.014Z,21.17
2022-08-22T18:49:14.781Z,21.36
2022-08-22T18:51:43.106Z,21.23
2022-08-22T18:54:13.322Z,21.01
2022-08-22T18:56:47.884Z,20.98
2022-08-22T18:59:38.947Z,20.91
2022-08-22T19:02:33.651Z,20.96
2022-08-22T19:05:01.508Z,20.98
2022-08-22T19:07:47.001Z,20.90
2022-08-22T19:10:16.648Z,20.92
2022-08-22T19:13:08.124Z,20.83
2022-08-22T19:15:45.160Z,20.77
2022-08-22T19:18:34.366Z,20.85
2022-08-22T19:21:44.234Z,20.75
2022-08-22T19:24:35.862Z,20.76
2022-08-22T19:27:25.044Z,20.64
2022-08-22T19:30:01.913Z,20.69
2022-08-22T19:32:47.079Z,20.67
2022-08-22T19:35:27.039Z,20.64
2022-08-22T19:38:02.653Z,20.55
2022-08-22T19:40:44.594Z,20.54
2022-08-22T19:43:40.481Z,20.43
2022-08-22T19:46:11.962Z,20.45
2022-08-22T19:48:49.185Z,20.50
2022-08-22T19:51:28.182Z,20.44
2022-08-22T19:54:00.886Z,20.44
2022-08-22T19:56:55.577Z,20.38
2022-08-22T19:59:35.271Z,20.40
2022-08-22T20:02:31.886Z,20.34
2022-08-22T20:05:22.264Z,20.24
2022-08-22T20:08:07.511Z,20.20
2022-08-22T20:11:32.510Z,20.14
2022-08-22T20:14:22.421Z,20.40
2022-08-22T20:17:26.356Z,20.36
2022-08-22T20:20:17.604Z,20.29
2022-08-22T20:23:11.232Z,20.24
2022-08-22T20:25:43.160Z,20.32
2022-08-22T20:28:32.687Z,20.36
2022-08-22T20:31:03.558Z,20.33
2022-08-22T20:33:41.188Z,20.30
2022-08-22T20:36:27.212Z,20.17
2022-08-22T20:39:01.835Z,20.22
2022-08-22T20:41:44.628Z,20.13
2022-08-22T20:44:33.885Z,20.16
2022-08-22T20:47:07.082Z,20.23
2022-08-22T20:49:46.103Z,20.20
2022-08-22T20:52:34.887Z,20.13
2022-08-22T20:55:07.519Z,20.21
2022-08-22T20:57:43.518Z,20.22
2022-08-22T21:00:14.740Z,20.08
2022-08-22T21:02:48.044Z,20.19
2022-08-22T21:05:14.864Z,20.23
2022-08-22T21:07:46.693Z,20.13
2022-08-22T21:10:44.287Z,20.12
2022-08-22T21:13:22.206Z,20.13
2022-08-22T21:15:52.490Z,20.13
2022-08-22T21:18:28.195Z,20.22
2022-08-22T21:21:03.697Z,20.04
2022-08-22T21:23:36.612Z,20.22
2022-08-22T21:26:08.296Z,20.18
2022-08-22T21:28:54.221Z,20.13
2022-08-22T21:31:25.619Z,20.12
2022-08-22T21:33:55.188Z,20.14
2022-08-22T21:36:27.533Z,20.05
2022-08-22T21:38:58.456Z,19.95
2022-08-22T21:41:47.499Z,20.03
2022-08-22T21:44:41.513Z,20.04
2022-08-22T21:47:30.599Z,19.99
2022-08-22T21:50:13.353Z,19.99
2022-08-22T21:52:44.098Z,19.96
2022-08-22T21:55:15.927Z,19.86
2022-08-22T21:57:43.419Z,20.03
2022-08-22T22:00:49.632Z,20.04
2022-08-22T22:03:23.406Z,19.93
2022-08-22T22:05:52.851Z,19.90
2022-08-22T22:08:19.555Z,19.91
2022-08-22T22:10:48.707Z,19.89
2022-08-22T22:13:16.799Z,19.82
2022-08-22T22:15:45.702Z,19.82
2022-08-22T22:18:14.321Z,19.81
2022-08-22T22:20:42.365Z,19.85
2022-08-22T22:23:09.754Z,19.89
2022-08-22T22:25:41.749Z,19.95
2022-08-22T22:28:14.426Z,19.86
2022-08-22T22:30:42.554Z,19.95
2022-08-22T22:33:09.759Z,20.01
2022-08-22T22:35:40.684Z,20.07
2022-08-22T22:38:08.090Z,19.99
2022-08-22T22:40:35.334Z,20.08
2022-08-22T22:43:02.734Z,19.97
2022-08-22T22:45:29.622Z,19.95
2022-08-22T22:47:56.930Z,20.05
2022-08-22T22:50:23.946Z,19.96
2022-08-22T22:52:50.753Z,19.86
2022-08-22T22:55:24.212Z,19.94
2022-08-22T22:57:59.106Z,20.02
2022-08-22T23:00:30.615Z,19.91
2022-08-22T23:03:00.214Z,20.03
2022-08-22T23:05:27.695Z,19.83
2022-08-22T23:07:54.437Z,19.89
2022-08-22T23:10:24.132Z,20.00
2022-08-22T23:12:50.833Z,20.03
2022-08-22T23:15:17.652Z,19.85
2022-08-22T23:17:44.429Z,20.02
2022-08-22T23:20:11.698Z,19.86
2022-08-22T23:22:40.256Z,19.88
2022-08-22T23:25:07.406Z,19.97
2022-08-22T23:27:34.180Z,19.87
2022-08-22T23:30:02.181Z,19.83
2022-08-22T23:32:29.021Z,19.89
2022-08-22T23:34:56.218Z,19.87
2022-08-22T23:37:23.268Z,19.84
2022-08-22T23:39:50.208Z,19.92
2022-08-22T23:42:18.220Z,19.83
2022-08-22T23:44:45.954Z,19.85
2022-08-22T23:47:14.679Z,19.75
2022-08-22T23:49:42.461Z,19.73
2022-08-22T23:52:11.838Z,19.65
2022-08-22T23:54:38.599Z,19.69
2022-08-22T23:57:12.080Z,19.70
2022-08-22T23:59:44.549Z,19.71
